createdAt,value
2019-04-26T00:00:21.430Z,47.29
2019-04-26T00:02:52.169Z,47.90
2019-04-26T00:05:20.505Z,48.31
2019-04-26T00:07:48.893Z,48.67
2019-04-26T00:15:53.505Z,48.48
2019-04-26T00:18:21.897Z,49.79
2019-04-26T00:20:50.413Z,49.77
2019-04-26T00:23:18.798Z,50.61
2019-04-26T00:25:47.935Z,50.77
2019-04-26T00:28:16.981Z,50.64
2019-04-26T00:30:44.734Z,49.63
2019-04-26T00:33:13.531Z,48.42
2019-04-26T00:35:47.689Z,47.61
2019-04-26T00:38:09.883Z,48.50
2019-04-26T00:40:38.286Z,51.38
2019-04-26T00:45:40.987Z,54.05
2019-04-26T00:48:09.492Z,53.46
2019-04-26T00:50:37.892Z,52.93
2019-04-26T00:53:06.406Z,52.91
2019-04-26T00:55:34.827Z,51.46
2019-04-26T00:58:03.223Z,50.22
2019-04-26T01:00:31.549Z,52.00
2019-04-26T01:02:59.913Z,52.35
2019-04-26T01:05:28.265Z,51.40
2019-04-26T01:07:56.595Z,49.42
2019-04-26T01:10:25.814Z,48.13
2019-04-26T01:12:53.352Z,48.09
2019-04-26T01:15:22.921Z,48.67
2019-04-26T01:17:50.128Z,48.64
2019-04-26T01:20:18.921Z,48.76
2019-04-26T01:22:49.697Z,49.42
2019-04-26T01:27:53.282Z,50.98
2019-04-26T01:30:21.734Z,51.84
2019-04-26T01:32:50.057Z,53.91
2019-04-26T01:37:53.921Z,53.58
2019-04-26T01:40:22.297Z,55.01
2019-04-26T01:45:26.264Z,58.22
2019-04-26T01:47:54.674Z,59.50
2019-04-26T01:50:23.571Z,59.06
2019-04-26T01:52:51.414Z,61.06
2019-04-26T01:55:21.649Z,59.36
2019-04-26T02:00:29.559Z,62.70
2019-04-26T02:02:59.105Z,62.09
2019-04-26T02:08:01.809Z,64.37
2019-04-26T02:10:30.748Z,64.02
2019-04-26T02:12:59.655Z,63.44
2019-04-26T02:15:29.096Z,66.69
2019-04-26T02:17:56.511Z,66.30
2019-04-26T02:20:50.172Z,64.87
2019-04-26T02:23:18.549Z,67.72
2019-04-26T02:25:47.044Z,66.23
2019-04-26T02:28:15.520Z,68.86
2019-04-26T02:30:44.046Z,66.12
2019-04-26T02:33:12.456Z,68.52
2019-04-26T02:35:40.835Z,68.44
2019-04-26T02:38:09.262Z,69.29
2019-04-26T02:40:37.754Z,68.50
2019-04-26T02:43:07.161Z,68.42
2019-04-26T02:45:39.289Z,70.15
2019-04-26T02:48:13.109Z,67.87
2019-04-26T02:53:37.387Z,70.45
2019-04-26T02:59:05.907Z,69.93
2019-04-26T03:04:11.546Z,75.87
2019-04-26T03:06:41.138Z,73.89
2019-04-26T03:09:08.317Z,76.02
2019-04-26T03:11:41.318Z,76.67
2019-04-26T03:17:05.971Z,77.14
2019-04-26T03:19:59.851Z,78.45
2019-04-26T03:22:42.697Z,78.61
2019-04-26T03:25:19.079Z,80.20
2019-04-26T03:28:01.211Z,81.51
2019-04-26T03:30:39.038Z,82.28
2019-04-26T03:35:56.317Z,85.42
2019-04-26T03:41:15.403Z,85.83
2019-04-26T03:43:53.497Z,85.60
2019-04-26T03:46:24.127Z,86.79
2019-04-26T03:52:12.883Z,85.78
2019-04-26T03:54:42.676Z,86.13
2019-04-26T03:57:22.924Z,85.95
2019-04-26T03:59:53.751Z,85.80
2019-04-26T04:02:37.534Z,84.79
2019-04-26T04:05:09.033Z,85.30
2019-04-26T04:07:45.177Z,85.81
2019-04-26T04:10:15.874Z,84.03
2019-04-26T04:12:57.050Z,85.64
2019-04-26T04:15:34.697Z,85.78
2019-04-26T04:18:04.844Z,87.08
2019-04-26T04:20:58.387Z,87.44
2019-04-26T04:23:32.304Z,89.33
2019-04-26T04:26:00.643Z,90.20
2019-04-26T04:31:17.167Z,88.79
2019-04-26T04:33:49.588Z,88.31
2019-04-26T04:36:16.636Z,86.87
2019-04-26T04:39:12.344Z,86.20
2019-04-26T04:41:49.173Z,87.70
2019-04-26T04:44:31.804Z,89.12
2019-04-26T04:50:00.654Z,89.39
2019-04-26T04:52:42.669Z,89.14
2019-04-26T04:55:22.956Z,89.77
2019-04-26T04:58:10.620Z,90.53
2019-04-26T05:08:59.902Z,89.51
2019-04-26T05:11:36.077Z,88.99
2019-04-26T05:14:16.673Z,88.77
2019-04-26T05:19:28.426Z,87.19
2019-04-26T05:27:42.820Z,86.36
2019-04-26T05:33:07.913Z,85.43
2019-04-26T05:35:51.041Z,84.21
2019-04-26T05:38:28.965Z,83.32
2019-04-26T05:41:16.985Z,82.93
2019-04-26T05:46:37.079Z,82.09
2019-04-26T05:49:12.963Z,80.79
2019-04-26T05:51:53.677Z,79.78
2019-04-26T05:54:33.731Z,78.81
2019-04-26T06:00:01.034Z,77.84
2019-04-26T06:02:46.677Z,76.84
2019-04-26T06:05:25.019Z,75.62
2019-04-26T06:08:02.958Z,75.86
2019-04-26T06:10:35.789Z,76.70
2019-04-26T06:15:41.507Z,75.91
2019-04-26T06:20:55.434Z,75.29
2019-04-26T06:26:12.307Z,74.12
2019-04-26T06:28:43.017Z,73.56
2019-04-26T06:33:57.433Z,71.71
2019-04-26T06:36:25.782Z,73.79
2019-04-26T06:41:58.630Z,71.18
2019-04-26T06:44:26.991Z,71.60
2019-04-26T06:47:21.442Z,71.97
2019-04-26T06:53:22.488Z,70.91
2019-04-26T06:56:01.281Z,70.94
2019-04-26T07:01:23.671Z,70.72
2019-04-26T07:18:24.487Z,69.18
2019-04-26T07:21:06.964Z,68.90
2019-04-26T07:29:42.633Z,66.97
2019-04-26T07:32:20.536Z,67.57
2019-04-26T07:35:04.575Z,69.13
2019-04-26T07:40:21.676Z,68.02
2019-04-26T07:43:03.250Z,68.99
2019-04-26T07:45:44.493Z,67.90
2019-04-26T07:54:20.092Z,65.56
2019-04-26T07:57:00.435Z,64.77
2019-04-26T08:00:13.458Z,63.97
2019-04-26T08:03:02.809Z,64.38
2019-04-26T08:05:52.498Z,63.82
2019-04-26T08:08:20.865Z,64.10
2019-04-26T08:13:50.064Z,63.87
2019-04-26T08:19:14.726Z,64.23
2019-04-26T08:21:47.898Z,63.61
2019-04-26T08:26:46.393Z,63.89
2019-04-26T08:29:14.766Z,64.87
2019-04-26T08:31:43.062Z,64.73
2019-04-26T08:34:12.359Z,64.75
2019-04-26T08:36:40.320Z,63.23
2019-04-26T08:39:15.932Z,64.92
2019-04-26T08:41:44.795Z,66.45
2019-04-26T08:44:18.660Z,65.52
2019-04-26T08:46:58.680Z,66.38
2019-04-26T08:49:27.460Z,66.06
2019-04-26T08:51:56.152Z,67.09
2019-04-26T08:54:24.201Z,65.76
2019-04-26T08:59:27.596Z,66.45
2019-04-26T09:01:56.276Z,66.56
2019-04-26T09:04:24.627Z,68.21
2019-04-26T09:09:27.279Z,68.79
2019-04-26T09:11:59.764Z,68.07
2019-04-26T09:14:23.993Z,67.10
2019-04-26T09:19:30.558Z,69.21
2019-04-26T09:22:02.802Z,68.50
2019-04-26T09:27:01.112Z,70.13
2019-04-26T09:32:05.289Z,72.03
2019-04-26T09:39:43.428Z,74.17
2019-04-26T09:47:28.437Z,72.77
2019-04-26T09:50:02.344Z,73.63
2019-04-26T09:52:32.161Z,74.53
2019-04-26T09:55:00.652Z,74.96
2019-04-26T09:57:29.101Z,75.20
2019-04-26T09:59:57.449Z,74.86
2019-04-26T10:02:29.493Z,75.25
2019-04-26T10:04:54.145Z,74.58
2019-04-26T10:07:22.517Z,73.95
2019-04-26T10:09:51.800Z,74.82
2019-04-26T10:15:22.566Z,74.21
2019-04-26T10:17:50.137Z,73.27
2019-04-26T10:20:17.604Z,74.22
2019-04-26T10:22:46.004Z,74.77
2019-04-26T10:25:16.841Z,74.61
2019-04-26T10:27:42.713Z,74.77
2019-04-26T10:30:11.143Z,76.32
2019-04-26T10:32:39.516Z,76.80
2019-04-26T10:35:08.822Z,77.17
2019-04-26T10:37:39.530Z,78.27
2019-04-26T10:40:06.193Z,77.99
2019-04-26T10:42:34.573Z,78.15
2019-04-26T10:45:02.900Z,79.54
2019-04-26T10:47:34.359Z,81.19
2019-04-26T10:52:49.566Z,83.97
2019-04-26T10:57:47.529Z,82.74
2019-04-26T11:00:21.419Z,83.04
2019-04-26T11:02:49.760Z,82.92
2019-04-26T11:05:19.290Z,82.04
2019-04-26T11:07:47.559Z,82.20
2019-04-26T11:10:15.913Z,81.81
2019-04-26T11:12:44.797Z,82.16
2019-04-26T11:15:13.656Z,81.99
2019-04-26T11:17:41.995Z,82.42
2019-04-26T11:20:12.277Z,81.94
2019-04-26T11:22:40.611Z,81.28
2019-04-26T11:25:08.953Z,82.45
2019-04-26T11:30:20.532Z,86.48
2019-04-26T11:32:45.773Z,88.75
2019-04-26T11:35:12.387Z,90.64
2019-04-26T11:37:40.756Z,92.77
2019-04-26T11:40:13.866Z,93.29
2019-04-26T11:42:41.944Z,93.88
2019-04-26T11:45:10.808Z,93.84
2019-04-26T11:47:42.757Z,95.41
2019-04-26T11:50:06.951Z,95.39
2019-04-26T11:52:35.991Z,95.66
2019-04-26T11:55:03.752Z,95.92
2019-04-26T11:57:32.154Z,95.84
2019-04-26T12:00:01.404Z,96.12
2019-04-26T12:02:28.986Z,97.81
2019-04-26T12:05:00.575Z,98.28
2019-04-26T12:07:28.951Z,98.02
2019-04-26T12:10:09.834Z,98.28
2019-04-26T12:15:10.094Z,99.54
2019-04-26T12:17:38.040Z,100.00
2019-04-26T12:20:06.369Z,99.67
2019-04-26T12:22:34.808Z,100.00
2019-04-26T12:25:03.354Z,100.00
2019-04-26T12:27:31.939Z,100.00
2019-04-26T12:29:59.955Z,100.00
2019-04-26T12:32:28.326Z,100.00
2019-04-26T12:34:56.737Z,100.00
2019-04-26T12:37:25.618Z,100.00
2019-04-26T12:39:54.108Z,100.00
2019-04-26T12:42:22.423Z,100.00
2019-04-26T12:44:52.135Z,100.00
2019-04-26T12:49:58.979Z,100.00
2019-04-26T12:52:23.087Z,100.00
2019-04-26T12:54:51.446Z,100.00
2019-04-26T12:57:19.969Z,100.00
2019-04-26T12:59:48.395Z,100.00
2019-04-26T13:02:20.678Z,100.00
2019-04-26T13:04:45.383Z,100.00
2019-04-26T13:07:23.574Z,100.00
2019-04-26T13:12:17.350Z,99.44
2019-04-26T13:15:03.518Z,95.99
2019-04-26T13:17:35.782Z,97.04
2019-04-26T13:20:02.567Z,95.38
2019-04-26T13:22:32.140Z,95.29
2019-04-26T13:24:59.312Z,93.78
2019-04-26T13:27:27.654Z,94.24
2019-04-26T13:30:02.199Z,95.74
2019-04-26T13:32:24.361Z,92.77
2019-04-26T13:34:52.822Z,95.12
2019-04-26T13:37:21.161Z,94.51
2019-04-26T13:39:51.260Z,93.81
2019-04-26T13:42:18.700Z,94.49
2019-04-26T13:44:52.800Z,94.62
2019-04-26T13:47:23.084Z,92.71
2019-04-26T13:49:52.342Z,89.56
2019-04-26T13:52:20.277Z,88.66
2019-04-26T13:54:51.254Z,89.51
2019-04-26T13:57:17.892Z,89.32
2019-04-26T13:59:46.236Z,90.22
2019-04-26T14:02:14.573Z,91.12
2019-04-26T14:04:44.060Z,91.26
2019-04-26T14:07:12.471Z,92.94
2019-04-26T14:09:40.842Z,92.09
2019-04-26T14:12:18.202Z,91.78
2019-04-26T14:14:39.765Z,91.75
2019-04-26T14:17:08.169Z,91.96
2019-04-26T14:22:10.768Z,90.51
2019-04-26T14:27:16.744Z,91.25
2019-04-26T14:29:45.212Z,91.14
2019-04-26T14:32:13.593Z,91.33
2019-04-26T14:34:45.115Z,92.60
2019-04-26T14:37:11.246Z,92.82
2019-04-26T14:39:50.311Z,92.68
2019-04-26T14:42:07.344Z,95.00
2019-04-26T14:44:48.478Z,95.29
2019-04-26T14:47:13.914Z,95.27
2019-04-26T14:49:43.013Z,95.47
2019-04-26T14:52:09.392Z,96.24
2019-04-26T14:54:41.483Z,96.05
2019-04-26T14:57:11.358Z,94.79
2019-04-26T14:59:44.387Z,93.98
2019-04-26T15:07:58.441Z,99.00
2019-04-26T15:10:43.760Z,99.21
2019-04-26T15:13:15.032Z,99.53
2019-04-26T15:15:33.687Z,100.00
2019-04-26T15:18:00.455Z,100.00
2019-04-26T15:20:28.005Z,100.00
2019-04-26T15:22:56.349Z,100.00
2019-04-26T15:25:24.765Z,100.00
2019-04-26T15:27:53.129Z,100.00
2019-04-26T15:30:22.036Z,100.00
2019-04-26T15:32:49.898Z,99.40
2019-04-26T15:35:19.200Z,100.00
2019-04-26T15:37:47.578Z,100.00
2019-04-26T15:40:22.603Z,99.38
2019-04-26T15:45:32.620Z,100.00
2019-04-26T15:50:53.589Z,100.00
2019-04-26T15:53:21.494Z,99.65
2019-04-26T15:55:47.833Z,100.00
2019-04-26T15:58:16.181Z,100.00
2019-04-26T16:00:44.527Z,100.00
2019-04-26T16:03:12.907Z,100.00
2019-04-26T16:05:41.261Z,100.00
2019-04-26T16:08:09.620Z,100.00
2019-04-26T16:10:38.503Z,100.00
2019-04-26T16:13:18.081Z,100.00
2019-04-26T16:20:44.490Z,98.20
2019-04-26T16:23:13.347Z,98.39
2019-04-26T16:25:39.992Z,96.43
2019-04-26T16:28:13.802Z,97.49
2019-04-26T16:30:47.759Z,95.79
2019-04-26T16:33:19.432Z,94.88
2019-04-26T16:41:03.400Z,88.24
2019-04-26T16:46:02.132Z,86.94
2019-04-26T16:48:28.592Z,85.54
2019-04-26T16:51:01.014Z,86.20
2019-04-26T16:53:43.653Z,88.67
2019-04-26T16:55:53.698Z,87.72
2019-04-26T16:58:24.633Z,86.30
2019-04-26T17:00:46.837Z,88.88
2019-04-26T17:03:19.708Z,87.84
2019-04-26T17:05:49.347Z,88.89
2019-04-26T17:09:39.159Z,85.92
2019-04-26T17:10:52.157Z,87.16
2019-04-26T17:13:25.526Z,87.64
2019-04-26T17:15:52.062Z,86.91
2019-04-26T17:18:19.324Z,86.93
2019-04-26T17:20:48.153Z,86.25
2019-04-26T17:23:14.917Z,86.74
2019-04-26T17:25:49.745Z,87.48
2019-04-26T17:28:22.973Z,87.85
2019-04-26T17:30:46.442Z,88.37
2019-04-26T17:33:14.853Z,87.37
2019-04-26T17:35:44.156Z,87.49
2019-04-26T17:38:12.558Z,87.59
2019-04-26T17:40:41.172Z,88.40
2019-04-26T17:43:09.956Z,88.28
2019-04-26T17:45:40.812Z,88.86
2019-04-26T17:48:06.682Z,88.00
2019-04-26T17:50:35.358Z,88.18
2019-04-26T17:53:06.642Z,88.50
2019-04-26T17:55:33.533Z,88.31
2019-04-26T17:58:11.467Z,88.51
2019-04-26T18:00:44.606Z,89.66
2019-04-26T18:05:45.055Z,89.65
2019-04-26T18:08:30.204Z,90.17
2019-04-26T18:10:30.501Z,90.93
2019-04-26T18:12:57.832Z,91.04
2019-04-26T18:15:28.725Z,90.85
2019-04-26T18:17:57.832Z,91.34
2019-04-26T18:20:33.240Z,91.30
2019-04-26T18:23:00.012Z,91.46
2019-04-26T18:25:28.421Z,90.74
2019-04-26T18:27:58.108Z,91.69
2019-04-26T18:30:26.442Z,91.70
2019-04-26T18:32:54.781Z,91.25
2019-04-26T18:35:23.789Z,92.50
2019-04-26T18:37:53.623Z,93.05
2019-04-26T18:40:20.800Z,93.37
2019-04-26T18:42:48.858Z,92.68
2019-04-26T18:47:54.883Z,91.94
2019-04-26T18:50:19.823Z,92.61
2019-04-26T18:53:00.132Z,93.29
2019-04-26T18:55:30.315Z,93.72
2019-04-26T18:58:01.661Z,94.22
2019-04-26T19:00:28.684Z,94.58
2019-04-26T19:05:30.204Z,94.30
2019-04-26T19:07:56.773Z,93.81
2019-04-26T19:10:25.708Z,93.91
2019-04-26T19:12:56.485Z,93.89
2019-04-26T19:18:22.064Z,94.44
2019-04-26T19:23:33.339Z,95.00
2019-04-26T19:26:01.862Z,95.01
2019-04-26T19:28:29.987Z,94.35
2019-04-26T19:30:58.348Z,94.19
2019-04-26T19:33:26.823Z,94.08
2019-04-26T19:35:55.194Z,94.02
2019-04-26T19:38:23.535Z,93.64
2019-04-26T19:40:52.159Z,93.19
2019-04-26T19:43:30.302Z,93.25
2019-04-26T19:45:55.181Z,93.24
2019-04-26T19:48:26.086Z,93.69
2019-04-26T19:53:51.154Z,94.92
2019-04-26T19:56:27.735Z,95.05
2019-04-26T20:01:28.137Z,95.66
2019-04-26T20:03:56.473Z,95.40
2019-04-26T20:06:26.808Z,94.93
2019-04-26T20:08:53.301Z,94.90
2019-04-26T20:11:21.741Z,94.96
2019-04-26T20:13:51.782Z,94.65
2019-04-26T20:16:18.467Z,94.92
2019-04-26T20:18:46.814Z,95.43
2019-04-26T20:21:15.569Z,95.80
2019-04-26T20:23:47.252Z,96.47
2019-04-26T20:26:12.049Z,96.61
2019-04-26T20:28:42.128Z,96.16
2019-04-26T20:31:14.695Z,95.53
2019-04-26T20:33:43.082Z,95.21
2019-04-26T20:36:11.456Z,95.32
2019-04-26T20:38:43.796Z,95.77
2019-04-26T20:41:08.323Z,96.27
2019-04-26T20:43:43.742Z,95.77
2019-04-26T20:46:14.003Z,95.33
2019-04-26T20:48:33.966Z,94.80
2019-04-26T20:51:02.452Z,94.97
2019-04-26T20:53:39.659Z,94.96
2019-04-26T20:55:59.349Z,94.82
2019-04-26T20:58:27.685Z,94.57
2019-04-26T21:00:56.126Z,94.49
2019-04-26T21:03:27.616Z,94.58
2019-04-26T21:05:58.861Z,95.29
2019-04-26T21:08:25.770Z,94.70
2019-04-26T21:10:49.580Z,94.79
2019-04-26T21:13:17.965Z,94.42
2019-04-26T21:15:56.316Z,94.17
2019-04-26T21:18:14.646Z,93.73
2019-04-26T21:20:43.988Z,93.56
2019-04-26T21:23:13.323Z,93.31
2019-04-26T21:25:43.119Z,93.51
2019-04-26T21:28:11.924Z,93.76
2019-04-26T21:30:41.668Z,93.70
2019-04-26T21:33:08.601Z,93.28
2019-04-26T21:35:38.724Z,93.00
2019-04-26T21:40:43.489Z,93.05
2019-04-26T21:43:10.200Z,92.82
2019-04-26T21:45:38.545Z,92.57
2019-04-26T21:48:07.118Z,93.12
2019-04-26T21:50:38.603Z,93.36
2019-04-26T21:53:06.881Z,93.75
2019-04-26T21:55:38.190Z,93.67
2019-04-26T21:58:00.427Z,93.38
2019-04-26T22:08:16.963Z,94.18
2019-04-26T22:10:43.754Z,94.21
2019-04-26T22:13:11.284Z,95.70
2019-04-26T22:26:19.668Z,97.75
2019-04-26T22:28:48.025Z,98.08
2019-04-26T22:31:16.431Z,97.17
2019-04-26T22:33:44.754Z,96.83
2019-04-26T22:44:07.645Z,95.08
2019-04-26T22:46:47.409Z,95.22
2019-04-26T22:49:13.290Z,94.16
2019-04-26T22:51:41.150Z,93.97
2019-04-26T22:54:09.494Z,94.34
2019-04-26T22:56:38.446Z,92.75
2019-04-26T22:59:07.947Z,92.79
2019-04-26T23:01:35.003Z,91.87
2019-04-26T23:04:03.439Z,91.75
2019-04-26T23:06:31.360Z,90.89
2019-04-26T23:08:59.692Z,90.48
2019-04-26T23:11:28.097Z,89.34
2019-04-26T23:14:03.402Z,88.33
2019-04-26T23:16:33.509Z,89.05
2019-04-26T23:19:05.980Z,88.08
2019-04-26T23:21:37.636Z,87.84
2019-04-26T23:24:05.983Z,87.32
2019-04-26T23:26:37.521Z,86.49
2019-04-26T23:29:03.780Z,86.90
2019-04-26T23:31:31.038Z,86.21
2019-04-26T23:33:59.413Z,86.32
2019-04-26T23:36:27.748Z,87.60
2019-04-26T23:38:56.100Z,86.39
2019-04-26T23:41:24.479Z,86.74
2019-04-26T23:43:56.805Z,86.68
2019-04-26T23:46:22.787Z,86.04
2019-04-26T23:48:49.776Z,85.46
2019-04-26T23:56:26.423Z,84.82
2019-04-26T23:58:54.804Z,83.82
